createdAt,value
2019-06-27T00:00:54.648Z,1018.17
2019-06-27T00:01:54.629Z,1018.19
2019-06-27T00:02:54.573Z,1018.20
2019-06-27T00:03:54.585Z,1018.18
2019-06-27T00:04:54.555Z,1018.19
2019-06-27T00:05:54.553Z,1018.19
2019-06-27T00:06:54.566Z,1018.15
2019-06-27T00:07:54.532Z,1018.21
2019-06-27T00:08:54.509Z,1018.24
2019-06-27T00:09:54.539Z,1018.24
2019-06-27T00:10:54.500Z,1018.21
2019-06-27T00:11:54.523Z,1018.19
2019-06-27T00:12:54.474Z,1018.21
2019-06-27T00:13:54.469Z,1018.22
2019-06-27T00:14:54.455Z,1018.23
2019-06-27T00:15:54.438Z,1018.26
2019-06-27T00:16:54.467Z,1018.25
2019-06-27T00:17:54.475Z,1018.28
2019-06-27T00:18:54.418Z,1018.34
2019-06-27T00:19:54.410Z,1018.32
2019-06-27T00:20:54.415Z,1018.32
2019-06-27T00:21:54.416Z,1018.28
2019-06-27T00:22:54.377Z,1018.29
2019-06-27T00:23:54.357Z,1018.28
2019-06-27T00:24:54.351Z,1018.27
2019-06-27T00:25:54.331Z,1018.28
2019-06-27T00:26:57.563Z,1018.23
2019-06-27T00:27:54.317Z,1018.25
2019-06-27T00:28:54.317Z,1018.27
2019-06-27T00:29:54.324Z,1018.28
2019-06-27T00:30:54.276Z,1018.27
2019-06-27T00:31:54.311Z,1018.27
2019-06-27T00:32:54.306Z,1018.26
2019-06-27T00:33:54.285Z,1018.32
2019-06-27T00:34:54.239Z,1018.29
2019-06-27T00:35:54.244Z,1018.29
2019-06-27T00:36:54.225Z,1018.27
2019-06-27T00:37:54.203Z,1018.29
2019-06-27T00:38:54.260Z,1018.24
2019-06-27T00:39:54.194Z,1018.32
2019-06-27T00:40:54.190Z,1018.27
2019-06-27T00:41:54.172Z,1018.31
2019-06-27T00:42:54.187Z,1018.35
2019-06-27T00:43:54.198Z,1018.32
2019-06-27T00:44:54.146Z,1018.32
2019-06-27T00:45:54.132Z,1018.28
2019-06-27T00:46:54.106Z,1018.30
2019-06-27T00:47:54.111Z,1018.35
2019-06-27T00:48:54.143Z,1018.30
2019-06-27T00:49:54.084Z,1018.31
2019-06-27T00:50:54.076Z,1018.36
2019-06-27T00:51:54.062Z,1018.35
2019-06-27T00:52:54.058Z,1018.34
2019-06-27T00:53:54.082Z,1018.33
2019-06-27T00:54:54.050Z,1018.30
2019-06-27T00:55:54.014Z,1018.32
2019-06-27T00:56:54.028Z,1018.32
2019-06-27T00:57:54.004Z,1018.34
2019-06-27T00:58:54.028Z,1018.31
2019-06-27T00:59:54.036Z,1018.33
2019-06-27T01:00:53.969Z,1018.34
2019-06-27T01:01:53.959Z,1018.31
2019-06-27T01:02:53.955Z,1018.29
2019-06-27T01:03:53.975Z,1018.33
2019-06-27T01:04:53.924Z,1018.32
2019-06-27T01:05:53.924Z,1018.35
2019-06-27T01:06:53.923Z,1018.32
2019-06-27T01:07:53.887Z,1018.31
2019-06-27T01:08:53.906Z,1018.34
2019-06-27T01:09:53.912Z,1018.33
2019-06-27T01:10:53.857Z,1018.35
2019-06-27T01:11:53.869Z,1018.29
2019-06-27T01:12:53.837Z,1018.34
2019-06-27T01:13:53.825Z,1018.33
2019-06-27T01:14:53.817Z,1018.37
2019-06-27T01:15:53.831Z,1018.38
2019-06-27T01:16:53.840Z,1018.35
2019-06-27T01:17:53.790Z,1018.35
2019-06-27T01:18:53.769Z,1018.38
2019-06-27T01:19:53.788Z,1018.40
2019-06-27T01:20:53.774Z,1018.35
2019-06-27T01:21:53.766Z,1018.36
2019-06-27T01:22:53.736Z,1018.43
2019-06-27T01:23:53.720Z,1018.39
2019-06-27T01:24:53.713Z,1018.38
2019-06-27T01:25:53.735Z,1018.40
2019-06-27T01:26:53.685Z,1018.42
2019-06-27T01:27:53.709Z,1018.43
2019-06-27T01:28:53.682Z,1018.49
2019-06-27T01:29:53.668Z,1018.49
2019-06-27T01:30:53.685Z,1018.53
2019-06-27T01:31:53.635Z,1018.51
2019-06-27T01:32:53.638Z,1018.50
2019-06-27T01:33:53.620Z,1018.45
2019-06-27T01:34:53.600Z,1018.50
2019-06-27T01:35:53.586Z,1018.49
2019-06-27T01:36:53.606Z,1018.51
2019-06-27T01:37:53.573Z,1018.48
2019-06-27T01:38:53.560Z,1018.48
2019-06-27T01:39:53.548Z,1018.48
2019-06-27T01:40:53.534Z,1018.45
2019-06-27T01:41:53.567Z,1018.45
2019-06-27T01:42:53.517Z,1018.44
2019-06-27T01:43:53.500Z,1018.49
2019-06-27T01:44:53.506Z,1018.50
2019-06-27T01:45:53.484Z,1018.52
2019-06-27T01:46:53.522Z,1018.52
2019-06-27T01:47:53.478Z,1018.49
2019-06-27T01:48:53.444Z,1018.46
2019-06-27T01:49:53.439Z,1018.47
2019-06-27T01:50:53.425Z,1018.42
2019-06-27T01:51:53.442Z,1018.45
2019-06-27T01:52:53.441Z,1018.40
2019-06-27T01:53:53.402Z,1018.41
2019-06-27T01:54:53.376Z,1018.45
2019-06-27T01:55:53.406Z,1018.44
2019-06-27T01:56:53.368Z,1018.43
2019-06-27T01:57:53.396Z,1018.44
2019-06-27T01:58:53.336Z,1018.45
2019-06-27T01:59:53.338Z,1018.45
2019-06-27T02:00:53.331Z,1018.43
2019-06-27T02:01:53.296Z,1018.45
2019-06-27T02:02:53.354Z,1018.48
2019-06-27T02:03:53.306Z,1018.49
2019-06-27T02:04:53.272Z,1018.48
2019-06-27T02:05:53.255Z,1018.46
2019-06-27T02:06:53.287Z,1018.52
2019-06-27T02:07:53.280Z,1018.47
2019-06-27T02:08:53.259Z,1018.48
2019-06-27T02:09:53.235Z,1018.47
2019-06-27T02:10:53.211Z,1018.49
2019-06-27T02:11:53.200Z,1018.48
2019-06-27T02:12:53.177Z,1018.50
2019-06-27T02:13:53.205Z,1018.52
2019-06-27T02:14:53.183Z,1018.56
2019-06-27T02:15:53.163Z,1018.57
2019-06-27T02:16:53.235Z,1018.57
2019-06-27T02:17:53.179Z,1018.55
2019-06-27T02:18:53.160Z,1018.54
2019-06-27T02:19:53.106Z,1018.53
2019-06-27T02:20:53.095Z,1018.58
2019-06-27T02:21:53.098Z,1018.56
2019-06-27T02:22:53.102Z,1018.53
2019-06-27T02:23:53.062Z,1018.47
2019-06-27T02:24:53.088Z,1018.52
2019-06-27T02:25:53.045Z,1018.55
2019-06-27T02:26:53.045Z,1018.51
2019-06-27T02:28:03.200Z,1018.56
2019-06-27T02:28:54.044Z,1018.56
2019-06-27T02:29:53.004Z,1018.60
2019-06-27T02:30:52.984Z,1018.57
2019-06-27T02:31:53.001Z,1018.59
2019-06-27T02:32:52.963Z,1018.59
2019-06-27T02:33:53.014Z,1018.58
2019-06-27T02:34:52.954Z,1018.60
2019-06-27T02:35:52.968Z,1018.64
2019-06-27T02:36:52.935Z,1018.67
2019-06-27T02:37:52.914Z,1018.68
2019-06-27T02:38:52.904Z,1018.69
2019-06-27T02:39:52.915Z,1018.70
2019-06-27T02:40:52.880Z,1018.72
2019-06-27T02:41:52.883Z,1018.74
2019-06-27T02:42:52.875Z,1018.73
2019-06-27T02:43:52.896Z,1018.72
2019-06-27T02:44:52.848Z,1018.75
2019-06-27T02:45:52.829Z,1018.75
2019-06-27T02:46:52.810Z,1018.75
2019-06-27T02:47:52.799Z,1018.78
2019-06-27T02:48:52.833Z,1018.77
2019-06-27T02:49:52.799Z,1018.77
2019-06-27T02:50:52.770Z,1018.82
2019-06-27T02:51:52.807Z,1018.80
2019-06-27T02:52:52.753Z,1018.78
2019-06-27T02:53:52.747Z,1018.83
2019-06-27T02:54:52.729Z,1018.82
2019-06-27T02:55:52.746Z,1018.86
2019-06-27T02:56:52.706Z,1018.86
2019-06-27T02:57:52.696Z,1018.85
2019-06-27T02:58:52.690Z,1018.89
2019-06-27T02:59:52.710Z,1018.85
2019-06-27T03:00:52.674Z,1018.82
2019-06-27T03:01:52.654Z,1018.84
2019-06-27T03:02:52.658Z,1018.83
2019-06-27T03:03:52.635Z,1018.86
2019-06-27T03:04:52.656Z,1018.88
2019-06-27T03:05:52.648Z,1018.87
2019-06-27T03:06:52.602Z,1018.86
2019-06-27T03:07:52.582Z,1018.83
2019-06-27T03:08:52.581Z,1018.86
2019-06-27T03:09:52.617Z,1018.90
2019-06-27T03:10:52.563Z,1018.89
2019-06-27T03:11:52.608Z,1018.87
2019-06-27T03:12:52.591Z,1018.85
2019-06-27T03:13:52.521Z,1018.88
2019-06-27T03:14:52.516Z,1018.94
2019-06-27T03:15:52.539Z,1018.94
2019-06-27T03:16:52.493Z,1018.94
2019-06-27T03:17:52.483Z,1018.93
2019-06-27T03:18:52.609Z,1018.96
2019-06-27T03:19:52.478Z,1018.91
2019-06-27T03:20:52.444Z,1018.89
2019-06-27T03:21:52.450Z,1018.94
2019-06-27T03:22:52.422Z,1018.94
2019-06-27T03:23:52.466Z,1018.94
2019-06-27T03:24:52.411Z,1018.96
2019-06-27T03:25:52.396Z,1018.92
2019-06-27T03:26:52.427Z,1018.95
2019-06-27T03:27:52.378Z,1018.96
2019-06-27T03:28:54.064Z,1019.02
2019-06-27T03:29:52.347Z,1018.97
2019-06-27T03:30:52.360Z,1019.00
2019-06-27T03:31:52.401Z,1018.98
2019-06-27T03:32:52.411Z,1018.94
2019-06-27T03:33:52.306Z,1019.02
2019-06-27T03:34:52.318Z,1019.02
2019-06-27T03:35:52.303Z,1019.08
2019-06-27T03:36:52.285Z,1019.03
2019-06-27T03:37:52.312Z,1019.03
2019-06-27T03:38:52.289Z,1019.02
2019-06-27T03:39:52.272Z,1018.96
2019-06-27T03:40:52.233Z,1019.00
2019-06-27T03:41:52.242Z,1019.06
2019-06-27T03:42:52.276Z,1019.01
2019-06-27T03:43:52.210Z,1019.01
2019-06-27T03:44:52.182Z,1019.01
2019-06-27T03:45:52.197Z,1019.03
2019-06-27T03:46:52.164Z,1019.05
2019-06-27T03:47:52.184Z,1019.06
2019-06-27T03:48:52.184Z,1019.05
2019-06-27T03:49:52.136Z,1019.08
2019-06-27T03:50:55.810Z,1019.09
2019-06-27T03:51:52.114Z,1019.10
2019-06-27T03:52:52.142Z,1019.12
2019-06-27T03:53:52.093Z,1019.10
2019-06-27T03:54:52.078Z,1019.12
2019-06-27T03:55:52.070Z,1019.14
2019-06-27T03:56:52.062Z,1019.19
2019-06-27T03:57:52.086Z,1019.16
2019-06-27T03:59:10.625Z,1019.17
2019-06-27T03:59:53.044Z,1019.15
2019-06-27T04:00:52.020Z,1019.14
2019-06-27T04:01:52.021Z,1019.17
2019-06-27T04:02:52.000Z,1019.16
2019-06-27T04:03:52.021Z,1019.21
2019-06-27T04:04:52.004Z,1019.24
2019-06-27T04:05:51.980Z,1019.33
2019-06-27T04:06:51.966Z,1019.30
2019-06-27T04:07:51.934Z,1019.33
2019-06-27T04:08:51.950Z,1019.32
2019-06-27T04:09:51.940Z,1019.32
2019-06-27T04:10:51.914Z,1019.31
2019-06-27T04:11:51.919Z,1019.29
2019-06-27T04:12:51.892Z,1019.25
2019-06-27T04:13:51.933Z,1019.26
2019-06-27T04:14:51.868Z,1019.24
2019-06-27T04:15:51.850Z,1019.22
2019-06-27T04:16:51.857Z,1019.26
2019-06-27T04:17:51.886Z,1019.28
2019-06-27T04:18:51.814Z,1019.27
2019-06-27T04:19:51.833Z,1019.29
2019-06-27T04:20:51.840Z,1019.26
2019-06-27T04:21:51.786Z,1019.28
2019-06-27T04:22:51.836Z,1019.20
2019-06-27T04:23:51.776Z,1019.23
2019-06-27T04:24:51.767Z,1019.24
2019-06-27T04:25:51.749Z,1019.30
2019-06-27T04:26:51.734Z,1019.30
2019-06-27T04:27:51.767Z,1019.30
2019-06-27T04:28:51.715Z,1019.35
2019-06-27T04:29:51.707Z,1019.33
2019-06-27T04:30:51.710Z,1019.33
2019-06-27T04:31:51.685Z,1019.37
2019-06-27T04:32:51.718Z,1019.35
2019-06-27T04:33:51.670Z,1019.40
2019-06-27T04:34:51.673Z,1019.39
2019-06-27T04:35:51.642Z,1019.36
2019-06-27T04:36:51.649Z,1019.38
2019-06-27T04:37:51.611Z,1019.33
2019-06-27T04:38:51.720Z,1019.30
2019-06-27T04:39:51.595Z,1019.32
2019-06-27T04:40:51.578Z,1019.33
2019-06-27T04:41:51.569Z,1019.30
2019-06-27T04:42:51.572Z,1019.29
2019-06-27T04:43:51.600Z,1019.31
2019-06-27T04:44:51.672Z,1019.36
2019-06-27T04:45:51.581Z,1019.33
2019-06-27T04:46:51.516Z,1019.39
2019-06-27T04:47:51.524Z,1019.38
2019-06-27T04:48:51.508Z,1019.39
2019-06-27T04:49:51.624Z,1019.42
2019-06-27T04:50:51.483Z,1019.41
2019-06-27T04:51:51.474Z,1019.41
2019-06-27T04:52:51.448Z,1019.43
2019-06-27T04:53:51.442Z,1019.46
2019-06-27T04:54:51.435Z,1019.45
2019-06-27T04:55:51.449Z,1019.43
2019-06-27T04:56:51.426Z,1019.42
2019-06-27T04:57:51.426Z,1019.45
2019-06-27T04:58:51.396Z,1019.41
2019-06-27T04:59:53.765Z,1019.41
2019-06-27T05:00:51.480Z,1019.45
2019-06-27T05:01:51.359Z,1019.45
2019-06-27T05:02:51.348Z,1019.46
2019-06-27T05:03:51.518Z,1019.44
2019-06-27T05:04:51.317Z,1019.42
2019-06-27T05:05:51.337Z,1019.46
2019-06-27T05:06:51.323Z,1019.51
2019-06-27T05:07:51.347Z,1019.48
2019-06-27T05:08:51.305Z,1019.49
2019-06-27T05:09:51.265Z,1019.48
2019-06-27T05:10:51.300Z,1019.49
2019-06-27T05:11:51.250Z,1019.49
2019-06-27T05:12:51.236Z,1019.53
2019-06-27T05:13:51.241Z,1019.49
2019-06-27T05:14:51.205Z,1019.52
2019-06-27T05:15:51.294Z,1019.50
2019-06-27T05:16:51.186Z,1019.49
2019-06-27T05:17:51.189Z,1019.48
2019-06-27T05:18:51.190Z,1019.50
2019-06-27T05:19:51.155Z,1019.49
2019-06-27T05:20:51.148Z,1019.49
2019-06-27T05:21:51.163Z,1019.49
2019-06-27T05:22:51.120Z,1019.50
2019-06-27T05:23:51.118Z,1019.50
2019-06-27T05:24:51.107Z,1019.56
2019-06-27T05:25:51.087Z,1019.55
2019-06-27T05:26:51.133Z,1019.60
2019-06-27T05:27:51.076Z,1019.64
2019-06-27T05:28:51.080Z,1019.64
2019-06-27T05:29:51.061Z,1019.65
2019-06-27T05:30:51.726Z,1019.64
2019-06-27T05:31:51.073Z,1019.70
2019-06-27T05:32:51.031Z,1019.67
2019-06-27T05:33:51.013Z,1019.68
2019-06-27T05:34:51.006Z,1019.72
2019-06-27T05:35:51.000Z,1019.69
2019-06-27T05:36:50.986Z,1019.69
2019-06-27T05:37:51.087Z,1019.70
2019-06-27T05:38:50.950Z,1019.71
2019-06-27T05:39:50.949Z,1019.68
2019-06-27T05:40:50.960Z,1019.72
2019-06-27T05:41:50.916Z,1019.74
2019-06-27T05:42:50.907Z,1019.75
2019-06-27T05:43:50.936Z,1019.78
2019-06-27T05:44:50.940Z,1019.84
2019-06-27T05:45:50.952Z,1019.76
2019-06-27T05:46:50.872Z,1019.83
2019-06-27T05:47:50.854Z,1019.78
2019-06-27T05:48:50.870Z,1019.84
2019-06-27T05:49:50.859Z,1019.80
2019-06-27T05:50:50.853Z,1019.77
2019-06-27T05:51:50.814Z,1019.78
2019-06-27T05:52:50.810Z,1019.80
2019-06-27T05:53:50.787Z,1019.77
2019-06-27T05:54:50.814Z,1019.80
2019-06-27T05:55:50.762Z,1019.82
2019-06-27T05:56:50.757Z,1019.82
2019-06-27T05:57:50.834Z,1019.80
2019-06-27T05:58:52.056Z,1019.80
2019-06-27T05:59:50.724Z,1019.81
2019-06-27T06:00:50.763Z,1019.78
2019-06-27T06:01:50.725Z,1019.86
2019-06-27T06:02:50.735Z,1019.85
2019-06-27T06:03:50.709Z,1019.90
2019-06-27T06:04:50.689Z,1019.84
2019-06-27T06:05:50.710Z,1019.85
2019-06-27T06:06:50.678Z,1019.82
2019-06-27T06:07:50.634Z,1019.79
2019-06-27T06:08:50.637Z,1019.82
2019-06-27T06:09:50.626Z,1019.80
2019-06-27T06:10:50.667Z,1019.80
2019-06-27T06:11:50.670Z,1019.82
2019-06-27T06:12:50.577Z,1019.84
2019-06-27T06:13:50.616Z,1019.82
2019-06-27T06:14:50.606Z,1019.87
2019-06-27T06:15:50.672Z,1019.91
2019-06-27T06:16:50.545Z,1019.88
2019-06-27T06:17:50.543Z,1019.91
2019-06-27T06:18:50.524Z,1019.87
2019-06-27T06:19:50.639Z,1019.92
2019-06-27T06:20:50.522Z,1019.93
2019-06-27T06:21:50.525Z,1019.95
2019-06-27T06:22:50.484Z,1019.95
2019-06-27T06:23:50.490Z,1019.92
2019-06-27T06:24:50.515Z,1019.93
2019-06-27T06:25:50.447Z,1019.94
2019-06-27T06:26:50.464Z,1019.93
2019-06-27T06:27:50.476Z,1019.95
2019-06-27T06:28:50.416Z,1019.90
2019-06-27T06:29:50.447Z,1019.94
2019-06-27T06:30:50.390Z,1019.89
2019-06-27T06:31:50.409Z,1019.91
2019-06-27T06:32:50.458Z,1019.87
2019-06-27T06:33:50.350Z,1019.92
2019-06-27T06:34:50.340Z,1019.89
2019-06-27T06:35:50.329Z,1019.90
2019-06-27T06:36:50.325Z,1019.92
2019-06-27T06:37:50.387Z,1019.92
2019-06-27T06:38:50.310Z,1020.00
2019-06-27T06:39:50.315Z,1019.98
2019-06-27T06:40:50.277Z,1020.01
2019-06-27T06:41:50.263Z,1020.02
2019-06-27T06:42:50.350Z,1019.98
2019-06-27T06:43:50.257Z,1019.99
2019-06-27T06:44:50.389Z,1019.97
2019-06-27T06:45:50.261Z,1020.02
2019-06-27T06:46:50.220Z,1019.96
2019-06-27T06:47:50.236Z,1020.01
2019-06-27T06:48:50.187Z,1020.02
2019-06-27T06:49:50.178Z,1020.02
2019-06-27T06:50:50.205Z,1020.00
2019-06-27T06:51:50.196Z,1019.98
2019-06-27T06:52:50.154Z,1019.98
2019-06-27T06:53:50.163Z,1019.94
2019-06-27T06:54:50.119Z,1020.02
2019-06-27T06:55:50.122Z,1019.94
2019-06-27T06:56:50.123Z,1019.94
2019-06-27T06:57:50.129Z,1019.99
2019-06-27T06:58:50.119Z,1019.92
2019-06-27T06:59:50.071Z,1019.97
2019-06-27T07:01:00.776Z,1019.94
2019-06-27T07:01:51.088Z,1019.99
2019-06-27T07:02:50.062Z,1020.03
2019-06-27T07:03:50.146Z,1020.00
2019-06-27T07:04:50.019Z,1020.01
2019-06-27T07:05:50.065Z,1020.03
2019-06-27T07:06:50.058Z,1020.00
2019-06-27T07:07:50.055Z,1020.04
2019-06-27T07:08:50.010Z,1020.04
2019-06-27T07:09:50.049Z,1020.06
2019-06-27T07:10:49.962Z,1020.12
2019-06-27T07:11:49.946Z,1020.08
2019-06-27T07:12:49.949Z,1020.10
2019-06-27T07:13:49.917Z,1020.09
2019-06-27T07:14:49.944Z,1020.15
2019-06-27T07:15:49.908Z,1020.11
2019-06-27T07:16:49.908Z,1020.12
2019-06-27T07:17:49.909Z,1020.19
2019-06-27T07:18:49.881Z,1020.24
2019-06-27T07:19:49.915Z,1020.28
2019-06-27T07:20:49.855Z,1020.25
2019-06-27T07:21:49.843Z,1020.27
2019-06-27T07:22:49.828Z,1020.02
2019-06-27T07:23:49.828Z,1020.19
2019-06-27T07:24:49.860Z,1020.11
2019-06-27T07:25:49.809Z,1020.11
2019-06-27T07:26:49.844Z,1020.10
2019-06-27T07:27:49.774Z,1020.01
2019-06-27T07:28:49.830Z,1020.13
2019-06-27T07:29:49.807Z,1020.19
2019-06-27T07:30:49.735Z,1020.19
2019-06-27T07:31:49.735Z,1020.26
2019-06-27T07:32:49.736Z,1020.37
2019-06-27T07:33:49.704Z,1020.34
2019-06-27T07:34:49.738Z,1020.36
2019-06-27T07:35:49.694Z,1020.35
2019-06-27T07:36:49.680Z,1020.47
2019-06-27T07:37:49.707Z,1020.48
2019-06-27T07:38:49.649Z,1020.47
2019-06-27T07:39:49.653Z,1020.46
2019-06-27T07:40:49.713Z,1020.49
2019-06-27T07:41:49.635Z,1020.46
2019-06-27T07:42:49.617Z,1020.44
2019-06-27T07:43:49.641Z,1020.48
2019-06-27T07:44:49.746Z,1020.42
2019-06-27T07:45:49.587Z,1020.32
2019-06-27T07:46:49.619Z,1020.29
2019-06-27T07:47:49.569Z,1020.22
2019-06-27T07:48:49.566Z,1020.24
2019-06-27T07:49:49.568Z,1020.36
2019-06-27T07:50:49.593Z,1020.32
2019-06-27T07:51:49.606Z,1020.41
2019-06-27T07:52:49.502Z,1020.22
2019-06-27T07:53:49.540Z,1020.29
2019-06-27T07:54:49.493Z,1020.19
2019-06-27T07:55:49.489Z,1020.24
2019-06-27T07:56:49.526Z,1020.39
2019-06-27T07:57:49.454Z,1020.37
2019-06-27T07:58:49.442Z,1020.64
2019-06-27T07:59:49.522Z,1020.31
2019-06-27T08:00:49.439Z,1020.24
2019-06-27T08:01:49.474Z,1020.22
2019-06-27T08:02:49.403Z,1020.31
2019-06-27T08:03:49.460Z,1020.65
2019-06-27T08:04:49.385Z,1020.24
2019-06-27T08:05:49.389Z,1020.25
2019-06-27T08:06:49.440Z,1020.45
2019-06-27T08:07:49.383Z,1020.31
2019-06-27T08:08:49.385Z,1020.18
2019-06-27T08:09:49.338Z,1020.42
2019-06-27T08:10:49.325Z,1020.42
2019-06-27T08:11:49.342Z,1020.54
2019-06-27T08:12:49.303Z,1020.33
2019-06-27T08:13:49.368Z,1020.26
2019-06-27T08:14:49.279Z,1020.24
2019-06-27T08:15:49.320Z,1020.33
2019-06-27T08:16:49.290Z,1020.30
2019-06-27T08:17:49.242Z,1020.36
2019-06-27T08:18:49.259Z,1020.41
2019-06-27T08:19:49.244Z,1020.46
2019-06-27T08:20:49.223Z,1020.58
2019-06-27T08:21:49.274Z,1020.49
2019-06-27T08:22:49.269Z,1020.47
2019-06-27T08:23:49.403Z,1020.48
2019-06-27T08:24:49.179Z,1020.60
2019-06-27T08:25:49.195Z,1020.63
2019-06-27T08:26:49.194Z,1020.60
2019-06-27T08:27:49.161Z,1020.63
2019-06-27T08:28:49.164Z,1020.63
2019-06-27T08:29:49.117Z,1020.63
2019-06-27T08:30:49.117Z,1020.62
2019-06-27T08:31:51.784Z,1020.64
2019-06-27T08:32:49.137Z,1020.67
2019-06-27T08:33:56.104Z,1020.64
2019-06-27T08:34:49.071Z,1020.67
2019-06-27T08:35:49.059Z,1020.67
2019-06-27T08:36:49.063Z,1020.65
2019-06-27T08:37:49.156Z,1020.70
2019-06-27T08:38:49.124Z,1020.63
2019-06-27T08:39:49.017Z,1020.70
2019-06-27T08:40:49.013Z,1020.71
2019-06-27T08:41:48.999Z,1020.70
2019-06-27T08:42:48.986Z,1020.74
2019-06-27T08:43:49.033Z,1020.74
2019-06-27T08:44:49.010Z,1020.72
2019-06-27T08:45:48.970Z,1020.67
2019-06-27T08:46:48.950Z,1020.72
2019-06-27T08:47:48.983Z,1020.69
2019-06-27T08:48:48.948Z,1020.78
2019-06-27T08:49:48.917Z,1020.64
2019-06-27T08:50:49.014Z,1020.67
2019-06-27T08:51:48.913Z,1020.50
2019-06-27T08:52:48.908Z,1020.69
2019-06-27T08:53:48.920Z,1020.27
2019-06-27T08:54:48.876Z,1020.54
2019-06-27T08:55:48.864Z,1020.40
2019-06-27T08:56:48.875Z,1020.55
2019-06-27T08:57:48.844Z,1020.60
2019-06-27T08:58:48.905Z,1020.62
2019-06-27T08:59:48.833Z,1020.55
2019-06-27T09:00:48.811Z,1020.69
2019-06-27T09:01:48.805Z,1020.36
2019-06-27T09:02:48.801Z,1020.34
2019-06-27T09:03:48.821Z,1020.32
2019-06-27T09:04:48.811Z,1020.37
2019-06-27T09:05:48.783Z,1020.66
2019-06-27T09:06:48.784Z,1020.63
2019-06-27T09:07:48.766Z,1020.64
2019-06-27T09:08:48.778Z,1020.66
2019-06-27T09:09:48.722Z,1020.72
2019-06-27T09:10:48.770Z,1020.68
2019-06-27T09:11:48.716Z,1020.69
2019-06-27T09:12:48.705Z,1020.70
2019-06-27T09:13:48.697Z,1020.70
2019-06-27T09:14:48.689Z,1020.68
2019-06-27T09:15:48.844Z,1020.71
2019-06-27T09:16:48.658Z,1020.73
2019-06-27T09:17:48.742Z,1020.72
2019-06-27T09:18:48.641Z,1020.67
2019-06-27T09:19:48.632Z,1020.68
2019-06-27T09:20:48.699Z,1020.68
2019-06-27T09:21:48.645Z,1020.66
2019-06-27T09:22:48.623Z,1020.72
2019-06-27T09:23:48.593Z,1020.66
2019-06-27T09:24:48.634Z,1020.68
2019-06-27T09:25:48.583Z,1020.68
2019-06-27T09:26:48.606Z,1020.70
2019-06-27T09:27:48.580Z,1020.73
2019-06-27T09:28:48.561Z,1020.80
2019-06-27T09:29:48.690Z,1020.68
2019-06-27T09:30:48.534Z,1020.70
2019-06-27T09:31:48.572Z,1020.76
2019-06-27T09:32:48.556Z,1020.68
2019-06-27T09:33:48.508Z,1020.74
2019-06-27T09:34:48.593Z,1020.74
2019-06-27T09:35:48.478Z,1020.72
2019-06-27T09:36:48.479Z,1020.77
2019-06-27T09:37:48.477Z,1020.78
2019-06-27T09:38:48.558Z,1020.82
2019-06-27T09:39:48.462Z,1020.76
2019-06-27T09:40:48.459Z,1020.78
2019-06-27T09:41:48.432Z,1020.81
2019-06-27T09:42:48.480Z,1020.77
2019-06-27T09:43:48.441Z,1020.82
2019-06-27T09:44:48.416Z,1020.77
2019-06-27T09:45:48.397Z,1020.74
2019-06-27T09:46:48.436Z,1020.73
2019-06-27T09:47:48.391Z,1020.73
2019-06-27T09:48:48.425Z,1020.76
2019-06-27T09:49:48.355Z,1020.70
2019-06-27T09:50:48.349Z,1020.70
2019-06-27T09:51:48.391Z,1020.72
2019-06-27T09:52:48.325Z,1020.71
2019-06-27T09:53:48.420Z,1020.67
2019-06-27T09:54:48.311Z,1020.66
2019-06-27T09:55:48.306Z,1020.68
2019-06-27T09:56:48.298Z,1020.72
2019-06-27T09:57:48.363Z,1020.68
2019-06-27T09:58:48.305Z,1020.68
2019-06-27T09:59:48.412Z,1020.72
2019-06-27T10:00:48.306Z,1020.72
2019-06-27T10:01:48.248Z,1020.67
2019-06-27T10:02:48.246Z,1020.65
2019-06-27T10:03:48.263Z,1020.72
2019-06-27T10:04:48.219Z,1020.61
2019-06-27T10:05:48.297Z,1020.59
2019-06-27T10:06:48.202Z,1020.64
2019-06-27T10:07:48.191Z,1020.64
2019-06-27T10:08:48.207Z,1020.57
2019-06-27T10:09:48.226Z,1020.59
2019-06-27T10:10:48.197Z,1020.61
2019-06-27T10:11:48.162Z,1020.61
2019-06-27T10:12:48.172Z,1020.47
2019-06-27T10:13:48.187Z,1020.48
2019-06-27T10:14:48.190Z,1020.56
2019-06-27T10:15:48.131Z,1020.55
2019-06-27T10:16:48.129Z,1020.59
2019-06-27T10:17:48.165Z,1020.56
2019-06-27T10:18:48.105Z,1020.56
2019-06-27T10:19:48.232Z,1020.59
2019-06-27T10:20:48.195Z,1020.60
2019-06-27T10:21:48.149Z,1020.60
2019-06-27T10:22:48.062Z,1020.58
2019-06-27T10:23:48.106Z,1020.62
2019-06-27T10:24:48.067Z,1020.61
2019-06-27T10:25:48.082Z,1020.53
2019-06-27T10:26:48.064Z,1020.49
2019-06-27T10:27:48.046Z,1020.54
2019-06-27T10:28:48.011Z,1020.50
2019-06-27T10:29:48.017Z,1020.51
2019-06-27T10:30:49.323Z,1020.44
2019-06-27T10:31:48.005Z,1020.46
2019-06-27T10:32:58.484Z,1020.47
2019-06-27T10:33:49.019Z,1020.54
2019-06-27T10:34:47.994Z,1020.47
2019-06-27T10:35:48.021Z,1020.47
2019-06-27T10:36:47.968Z,1020.48
2019-06-27T10:37:47.940Z,1020.44
2019-06-27T10:38:47.925Z,1020.38
2019-06-27T10:39:47.951Z,1020.36
2019-06-27T10:40:47.945Z,1020.38
2019-06-27T10:41:47.968Z,1020.36
2019-06-27T10:42:47.901Z,1020.41
2019-06-27T10:43:47.895Z,1020.45
2019-06-27T10:44:47.883Z,1020.45
2019-06-27T10:45:47.920Z,1020.39
2019-06-27T10:46:47.893Z,1020.38
2019-06-27T10:47:47.888Z,1020.33
2019-06-27T10:48:47.898Z,1020.31
2019-06-27T10:49:47.848Z,1020.27
2019-06-27T10:50:47.861Z,1020.34
2019-06-27T10:51:47.926Z,1020.39
2019-06-27T10:52:47.821Z,1020.38
2019-06-27T10:53:47.833Z,1020.35
2019-06-27T10:54:47.832Z,1020.34
2019-06-27T10:55:47.790Z,1020.33
2019-06-27T10:56:47.789Z,1020.38
2019-06-27T10:57:47.808Z,1020.41
2019-06-27T10:58:47.820Z,1020.39
2019-06-27T10:59:47.766Z,1020.39
2019-06-27T11:00:47.789Z,1020.36
2019-06-27T11:01:47.791Z,1020.38
2019-06-27T11:02:47.803Z,1020.35
2019-06-27T11:03:47.808Z,1020.26
2019-06-27T11:04:47.716Z,1020.28
2019-06-27T11:05:47.710Z,1020.25
2019-06-27T11:06:47.744Z,1020.23
2019-06-27T11:07:47.725Z,1020.21
2019-06-27T11:08:47.740Z,1020.23
2019-06-27T11:09:50.233Z,1020.19
2019-06-27T11:10:47.668Z,1020.13
2019-06-27T11:11:47.714Z,1020.20
2019-06-27T11:12:47.652Z,1020.21
2019-06-27T11:13:58.345Z,1020.17
2019-06-27T11:14:58.751Z,1020.12
2019-06-27T11:15:49.454Z,1020.13
2019-06-27T11:16:47.635Z,1020.13
2019-06-27T11:17:47.636Z,1019.57
2019-06-27T11:18:47.641Z,1020.10
2019-06-27T11:19:52.376Z,1020.06
2019-06-27T11:20:48.580Z,1020.08
2019-06-27T11:21:47.614Z,1020.06
2019-06-27T11:22:47.609Z,1020.03
2019-06-27T11:23:47.557Z,1020.04
2019-06-27T11:24:47.593Z,1020.06
2019-06-27T11:25:47.550Z,1020.03
2019-06-27T11:26:47.684Z,1020.08
2019-06-27T11:27:47.574Z,1020.01
2019-06-27T11:28:47.586Z,1020.03
2019-06-27T11:29:47.554Z,1019.96
2019-06-27T11:30:47.550Z,1019.94
2019-06-27T11:31:47.496Z,1019.92
2019-06-27T11:32:47.494Z,1019.96
2019-06-27T11:33:47.534Z,1019.94
2019-06-27T11:34:47.498Z,1019.97
2019-06-27T11:35:47.508Z,1020.01
2019-06-27T11:36:47.452Z,1019.97
2019-06-27T11:37:47.471Z,1020.08
2019-06-27T11:38:47.480Z,1019.99
2019-06-27T11:39:47.424Z,1019.94
2019-06-27T11:40:47.423Z,1019.88
2019-06-27T11:41:47.447Z,1019.74
2019-06-27T11:42:47.413Z,1019.32
2019-06-27T11:43:47.436Z,1019.27
2019-06-27T11:44:47.383Z,1019.72
2019-06-27T11:45:47.380Z,1019.25
2019-06-27T11:46:47.401Z,1019.39
2019-06-27T11:47:47.420Z,1019.20
2019-06-27T11:48:47.440Z,1019.20
2019-06-27T11:49:47.400Z,1019.15
2019-06-27T11:50:47.333Z,1019.12
2019-06-27T11:51:47.329Z,1019.07
2019-06-27T11:52:47.737Z,1019.06
2019-06-27T11:53:47.311Z,1019.10
2019-06-27T11:54:47.338Z,1019.10
2019-06-27T11:55:47.287Z,1019.08
2019-06-27T11:56:47.355Z,1019.03
2019-06-27T11:57:47.266Z,1019.07
2019-06-27T11:58:47.261Z,1019.01
2019-06-27T11:59:47.242Z,1019.00
2019-06-27T12:00:47.323Z,1018.99
2019-06-27T12:01:47.284Z,1019.05
2019-06-27T12:02:47.247Z,1019.16
2019-06-27T12:03:49.840Z,1019.08
2019-06-27T12:04:47.237Z,1018.99
2019-06-27T12:05:47.205Z,1018.98